createdAt,value
2023-03-23T15:58:47.425Z,14.85
2023-03-23T15:59:49.825Z,14.87
2023-03-23T16:00:54.426Z,14.97
2023-03-23T16:01:58.935Z,14.82
2023-03-23T16:03:06.605Z,14.80
2023-03-23T16:04:15.524Z,14.73
2023-03-23T16:05:18.194Z,14.71
2023-03-23T16:06:25.771Z,14.73
2023-03-23T16:07:29.241Z,14.75
2023-03-23T16:08:32.222Z,14.65
2023-03-23T16:09:35.993Z,14.73
2023-03-23T16:10:38.980Z,14.69
2023-03-23T16:11:43.365Z,14.72
2023-03-23T16:12:46.352Z,14.67
2023-03-23T16:13:50.190Z,14.57
2023-03-23T16:14:53.736Z,14.53
2023-03-23T16:15:56.452Z,14.47
2023-03-23T16:17:00.209Z,14.55
2023-03-23T16:18:04.234Z,14.58
2023-03-23T16:19:06.916Z,14.55
2023-03-23T16:20:17.113Z,14.60
2023-03-23T16:21:19.631Z,14.64
2023-03-23T16:22:23.066Z,14.61
2023-03-23T16:23:25.629Z,14.60
2023-03-23T16:24:29.262Z,14.59
2023-03-23T16:25:33.587Z,14.62
2023-03-23T16:26:37.826Z,14.61
2023-03-23T16:27:40.659Z,14.66
2023-03-23T16:28:44.778Z,14.58
2023-03-23T16:30:02.802Z,14.54
2023-03-23T16:31:08.623Z,14.47
2023-03-23T16:32:11.090Z,14.51
2023-03-23T16:33:14.467Z,14.57
2023-03-23T16:34:17.847Z,14.57
2023-03-23T16:35:23.691Z,14.61
2023-03-23T16:36:26.230Z,14.68
2023-03-23T16:37:33.436Z,14.62
2023-03-23T16:38:48.971Z,14.60
2023-03-23T16:39:53.823Z,14.58
2023-03-23T16:40:56.248Z,14.47
2023-03-23T16:41:59.556Z,14.54
2023-03-23T16:43:01.912Z,14.60
2023-03-23T16:44:12.749Z,14.46
2023-03-23T16:45:15.842Z,14.49
2023-03-23T16:46:19.581Z,14.44
2023-03-23T16:47:25.560Z,14.51
2023-03-23T16:48:29.222Z,14.50
2023-03-23T16:49:31.547Z,14.54
2023-03-23T16:50:39.320Z,14.45
2023-03-23T16:51:42.973Z,14.46
2023-03-23T16:52:48.882Z,14.44
2023-03-23T16:53:52.449Z,14.45
2023-03-23T16:54:54.644Z,14.35
2023-03-23T16:55:58.457Z,14.35
2023-03-23T16:57:00.985Z,14.32
2023-03-23T16:58:16.428Z,14.29
2023-03-23T16:59:20.558Z,14.21
2023-03-23T17:00:23.743Z,14.25
2023-03-23T17:01:27.255Z,14.23
2023-03-23T17:02:29.785Z,14.23
2023-03-23T17:03:33.639Z,14.19
2023-03-23T17:04:36.062Z,14.25
2023-03-23T17:05:41.564Z,14.28
2023-03-23T17:06:46.111Z,14.32
2023-03-23T17:07:48.667Z,14.31
2023-03-23T17:08:51.984Z,14.33
2023-03-23T17:09:54.403Z,14.35
2023-03-23T17:10:58.076Z,14.29
2023-03-23T17:12:00.468Z,14.24
2023-03-23T17:13:04.588Z,14.25
2023-03-23T17:14:07.872Z,14.30
2023-03-23T17:15:13.008Z,14.31
2023-03-23T17:16:16.357Z,14.23
2023-03-23T17:17:19.188Z,14.28
2023-03-23T17:18:22.756Z,14.20
2023-03-23T17:19:25.455Z,14.21
2023-03-23T17:20:28.845Z,14.25
2023-03-23T17:21:34.260Z,14.32
2023-03-23T17:22:39.193Z,14.26
2023-03-23T17:23:42.792Z,14.21
2023-03-23T17:24:47.751Z,14.20
2023-03-23T17:25:52.336Z,14.23
2023-03-23T17:26:55.225Z,14.17
2023-03-23T17:28:06.073Z,14.21
2023-03-23T17:29:10.510Z,14.23
2023-03-23T17:30:14.504Z,14.24
2023-03-23T17:31:16.993Z,14.33
2023-03-23T17:32:21.852Z,14.37
2023-03-23T17:33:25.517Z,14.35
2023-03-23T17:34:28.610Z,14.33
2023-03-23T17:35:32.631Z,14.34
2023-03-23T17:36:36.758Z,14.35
2023-03-23T17:37:40.578Z,14.36
2023-03-23T17:38:43.108Z,14.38
2023-03-23T17:39:47.960Z,14.37
2023-03-23T17:40:58.527Z,14.28
2023-03-23T17:42:01.758Z,14.20
2023-03-23T17:43:07.010Z,14.19
2023-03-23T17:44:09.408Z,14.20
2023-03-23T17:45:12.889Z,14.16
2023-03-23T17:46:15.546Z,14.18
2023-03-23T17:47:19.128Z,14.16
2023-03-23T17:48:21.569Z,14.18
2023-03-23T17:49:25.556Z,14.19
2023-03-23T17:50:27.930Z,14.15
2023-03-23T17:51:31.783Z,14.12
2023-03-23T17:52:36.832Z,14.11
2023-03-23T17:53:39.467Z,14.15
2023-03-23T17:54:43.146Z,14.15
2023-03-23T17:55:46.348Z,14.11
2023-03-23T17:56:50.375Z,14.16
2023-03-23T17:57:53.968Z,14.16
2023-03-23T17:58:56.207Z,14.24
2023-03-23T17:59:59.427Z,14.19
2023-03-23T18:01:03.846Z,14.11
2023-03-23T18:02:06.832Z,14.07
2023-03-23T18:03:10.227Z,14.09
2023-03-23T18:04:12.763Z,14.11
2023-03-23T18:05:16.335Z,14.07
2023-03-23T18:06:19.330Z,14.11
2023-03-23T18:07:23.746Z,14.08
2023-03-23T18:08:28.517Z,14.06
2023-03-23T18:09:32.103Z,14.04
2023-03-23T18:10:38.874Z,14.03
2023-03-23T18:11:42.442Z,14.01
2023-03-23T18:12:46.289Z,14.02
2023-03-23T18:13:48.515Z,13.96
2023-03-23T18:14:51.947Z,14.00
2023-03-23T18:15:55.465Z,14.07
2023-03-23T18:16:58.954Z,14.04
2023-03-23T18:18:03.692Z,14.00
2023-03-23T18:19:08.027Z,14.03
2023-03-23T18:20:11.376Z,14.07
2023-03-23T18:21:14.745Z,14.01
2023-03-23T18:22:17.295Z,13.98
2023-03-23T18:23:20.667Z,13.95
2023-03-23T18:24:25.423Z,13.99
2023-03-23T18:25:30.042Z,14.00
2023-03-23T18:26:33.539Z,14.07
2023-03-23T18:27:35.938Z,14.05
2023-03-23T18:28:40.175Z,14.04
2023-03-23T18:29:43.653Z,14.07
2023-03-23T18:30:49.583Z,14.10
2023-03-23T18:31:53.268Z,14.05
2023-03-23T18:32:56.020Z,14.08
2023-03-23T18:33:59.751Z,14.06
2023-03-23T18:35:02.157Z,14.02
2023-03-23T18:36:07.835Z,13.97
2023-03-23T18:37:11.381Z,14.01
2023-03-23T18:38:14.580Z,13.99
2023-03-23T18:39:18.485Z,13.97
2023-03-23T18:40:22.250Z,14.00
2023-03-23T18:41:26.127Z,14.01
2023-03-23T18:42:30.212Z,14.03
2023-03-23T18:43:32.430Z,14.07
2023-03-23T18:44:36.757Z,14.12
2023-03-23T18:45:39.482Z,14.11
2023-03-23T18:46:43.103Z,14.05
2023-03-23T18:47:45.457Z,14.07
2023-03-23T18:48:48.875Z,14.05
2023-03-23T18:49:55.343Z,14.04
2023-03-23T18:50:59.846Z,14.01
2023-03-23T18:52:05.661Z,14.04
2023-03-23T18:53:08.910Z,13.99
2023-03-23T18:54:13.451Z,13.96
2023-03-23T18:55:16.168Z,13.94
2023-03-23T18:56:20.950Z,13.92
2023-03-23T18:57:23.872Z,13.90
2023-03-23T18:58:27.570Z,13.88
2023-03-23T18:59:33.930Z,13.90
2023-03-23T19:00:37.415Z,13.90
2023-03-23T19:01:40.793Z,13.86
2023-03-23T19:02:44.226Z,13.85
2023-03-23T19:03:47.151Z,13.84
2023-03-23T19:04:51.045Z,13.84
2023-03-23T19:05:57.774Z,13.83
2023-03-23T19:07:03.483Z,13.79
2023-03-23T19:08:07.014Z,13.81
2023-03-23T19:09:10.244Z,13.79
2023-03-23T19:10:12.721Z,13.80
2023-03-23T19:11:17.106Z,13.78
2023-03-23T19:12:22.480Z,13.77
2023-03-23T19:13:26.342Z,13.72
2023-03-23T19:14:30.281Z,13.76
2023-03-23T19:15:32.692Z,13.76
2023-03-23T19:16:36.820Z,13.77
2023-03-23T19:17:39.328Z,13.78
2023-03-23T19:18:42.955Z,13.80
2023-03-23T19:19:46.962Z,13.80
2023-03-23T19:22:00.951Z,13.81
2023-03-23T19:23:03.331Z,13.87
2023-03-23T19:24:08.373Z,13.85
2023-03-23T19:25:10.668Z,13.86
2023-03-23T19:26:22.625Z,13.86
2023-03-23T19:27:26.512Z,13.85
2023-03-23T19:29:36.876Z,13.77
2023-03-23T19:30:45.810Z,13.82
2023-03-23T19:31:49.293Z,13.83
2023-03-23T19:32:52.000Z,13.81
2023-03-23T19:33:56.417Z,13.76
2023-03-23T19:34:59.190Z,13.76
2023-03-23T19:36:10.107Z,13.76
2023-03-23T19:37:17.489Z,13.77
2023-03-23T19:38:21.907Z,13.74
2023-03-23T19:39:25.371Z,13.77
2023-03-23T19:41:35.817Z,13.80
2023-03-23T19:42:41.000Z,13.81
2023-03-23T19:43:43.944Z,13.82
2023-03-23T19:44:47.481Z,13.86
2023-03-23T19:45:50.903Z,13.85
2023-03-23T19:46:55.110Z,13.82
2023-03-23T19:47:57.899Z,13.79
2023-03-23T19:49:02.412Z,13.79
2023-03-23T19:50:06.513Z,13.77
2023-03-23T19:51:12.746Z,13.83
2023-03-23T19:52:17.714Z,13.84
2023-03-23T19:53:22.109Z,13.88
2023-03-23T19:54:25.491Z,13.84
2023-03-23T19:55:28.203Z,13.83
2023-03-23T19:56:32.789Z,13.79
2023-03-23T19:57:35.651Z,13.82
2023-03-23T19:58:40.534Z,13.84
2023-03-23T19:59:44.379Z,13.85
2023-03-23T20:00:48.652Z,13.83
2023-03-23T20:01:51.896Z,13.74
2023-03-23T20:02:55.653Z,13.79
2023-03-23T20:04:00.252Z,13.77
2023-03-23T20:05:04.686Z,13.72
2023-03-23T20:06:12.075Z,13.75
2023-03-23T20:07:15.490Z,13.77
2023-03-23T20:08:18.229Z,13.80
2023-03-23T20:09:21.919Z,13.79
2023-03-23T20:10:25.864Z,13.83
2023-03-23T20:11:29.582Z,13.80
2023-03-23T20:12:33.201Z,13.83
2023-03-23T20:13:36.026Z,13.76
2023-03-23T20:14:45.021Z,13.78
2023-03-23T20:15:52.555Z,13.76
2023-03-23T20:16:56.015Z,13.69
2023-03-23T20:17:58.767Z,13.66
2023-03-23T20:19:05.033Z,13.68
2023-03-23T20:20:10.883Z,13.72
2023-03-23T20:21:19.430Z,13.70
2023-03-23T20:22:25.913Z,13.65
2023-03-23T20:23:28.356Z,13.63
2023-03-23T20:24:31.841Z,13.63
2023-03-23T20:25:34.119Z,13.63
2023-03-23T20:52:14.451Z,13.46
2023-03-23T20:53:17.439Z,13.43
2023-03-23T20:54:24.739Z,13.48
2023-03-23T20:55:28.122Z,13.52
2023-03-23T20:56:31.589Z,13.54
2023-03-23T20:57:35.433Z,13.59
2023-03-23T20:58:38.290Z,13.56
2023-03-23T20:59:42.090Z,13.57
2023-03-23T21:00:47.159Z,13.50
2023-03-23T21:01:51.313Z,13.57
2023-03-23T21:02:54.264Z,13.62
2023-03-23T21:04:00.294Z,13.57
2023-03-23T21:05:05.271Z,13.50
2023-03-23T21:06:08.532Z,13.53
2023-03-23T21:07:13.970Z,13.55
2023-03-23T21:08:18.387Z,13.58
2023-03-23T21:09:22.286Z,13.62
2023-03-23T21:10:25.797Z,13.65
2023-03-23T21:11:30.226Z,13.67
2023-03-23T21:12:33.710Z,13.67
2023-03-23T21:13:36.746Z,13.67
2023-03-23T21:14:41.524Z,13.68
2023-03-23T21:15:44.878Z,13.68
2023-03-23T21:16:48.942Z,13.66
2023-03-23T21:23:29.877Z,13.68
2023-03-23T21:24:37.575Z,13.65
2023-03-23T21:25:42.259Z,13.68
2023-03-23T21:26:45.568Z,13.70
2023-03-23T21:27:49.399Z,13.68
2023-03-23T21:28:54.209Z,13.66
2023-03-23T21:33:24.720Z,13.71
2023-03-23T21:34:28.016Z,13.67
2023-03-23T21:35:31.836Z,13.71
2023-03-23T21:36:35.852Z,13.69
2023-03-23T21:37:40.235Z,13.72
2023-03-23T21:38:44.828Z,13.70
2023-03-23T21:39:48.326Z,13.69
2023-03-23T21:40:50.689Z,13.69
2023-03-23T21:41:54.205Z,13.67
2023-03-23T21:42:56.702Z,13.69
2023-03-23T21:44:00.376Z,13.73
2023-03-23T21:45:02.940Z,13.71
2023-03-23T21:46:09.070Z,13.71
2023-03-23T21:47:13.012Z,13.75
2023-03-23T21:48:15.730Z,13.76
2023-03-23T21:49:19.159Z,13.66
2023-03-23T21:50:22.197Z,13.74
2023-03-23T21:51:27.168Z,13.75
2023-03-23T21:52:29.472Z,13.72
2023-03-23T21:53:34.074Z,13.68
2023-03-23T21:54:38.872Z,13.70
2023-03-23T21:55:44.976Z,13.59
2023-03-23T21:56:48.791Z,13.61
2023-03-23T21:57:52.803Z,13.66
2023-03-23T21:58:56.120Z,13.63
2023-03-23T21:59:59.564Z,13.67
2023-03-23T22:01:02.547Z,13.75
2023-03-23T22:02:07.017Z,13.80
2023-03-23T22:03:09.445Z,13.68
2023-03-23T22:04:12.889Z,13.72
2023-03-23T22:05:15.373Z,13.71
2023-03-23T22:06:21.170Z,13.69
2023-03-23T22:07:24.526Z,13.61
2023-03-23T22:08:30.398Z,13.63
2023-03-23T22:09:34.549Z,13.67
2023-03-23T22:11:00.696Z,13.68
2023-03-23T22:12:05.389Z,13.68
2023-03-23T22:13:08.330Z,13.67
2023-03-23T22:14:11.828Z,13.72
2023-03-23T22:15:15.242Z,13.74
2023-03-23T22:16:19.769Z,13.72
2023-03-23T22:17:22.230Z,13.59
2023-03-23T22:18:25.544Z,13.57
2023-03-23T22:19:28.104Z,13.52
2023-03-23T22:20:32.621Z,13.56
2023-03-23T22:21:35.097Z,13.59
2023-03-23T22:22:38.827Z,13.62
2023-03-23T22:23:42.732Z,13.71
2023-03-23T22:24:46.357Z,13.79
2023-03-23T22:25:50.473Z,13.74
2023-03-23T22:26:54.227Z,13.75
2023-03-23T22:27:56.580Z,13.88
2023-03-23T22:29:01.478Z,13.89
2023-03-23T22:30:04.562Z,13.89
2023-03-23T22:31:10.858Z,13.87
2023-03-23T22:32:13.306Z,13.97
2023-03-23T22:33:17.828Z,14.03
2023-03-23T22:34:21.490Z,14.09
2023-03-23T22:35:24.553Z,13.99
2023-03-23T22:36:30.741Z,13.99
2023-03-23T22:37:33.512Z,13.92
2023-03-23T22:38:38.541Z,13.99
2023-03-23T22:39:41.981Z,14.03
2023-03-23T22:40:44.583Z,14.16
2023-03-23T22:41:49.777Z,14.21
2023-03-23T22:42:52.139Z,14.23
2023-03-23T22:43:56.178Z,14.30
2023-03-23T22:44:58.700Z,14.28
2023-03-23T22:46:02.634Z,14.32
2023-03-23T22:47:07.218Z,14.32
2023-03-23T22:48:09.790Z,14.28
2023-03-23T22:49:14.058Z,14.24
2023-03-23T22:50:16.533Z,14.29
2023-03-23T22:51:21.566Z,14.34
2023-03-23T22:52:24.232Z,14.27
2023-03-23T22:53:28.058Z,14.30
2023-03-23T22:54:30.834Z,14.26
2023-03-23T22:55:34.940Z,14.19
2023-03-23T22:56:38.184Z,14.27
2023-03-23T22:57:43.296Z,14.36
2023-03-23T22:58:46.118Z,14.30
2023-03-23T22:59:50.170Z,14.35
2023-03-23T23:00:58.053Z,14.29
2023-03-23T23:02:01.596Z,14.33
2023-03-23T23:03:04.125Z,14.29
2023-03-23T23:04:07.909Z,14.27
2023-03-23T23:05:11.658Z,14.23
2023-03-23T23:06:17.197Z,14.25
2023-03-23T23:07:20.518Z,14.24
2023-03-23T23:08:25.047Z,14.15
2023-03-23T23:09:27.805Z,14.16
2023-03-23T23:10:31.536Z,14.16
2023-03-23T23:11:34.227Z,14.19
2023-03-23T23:12:38.033Z,14.21
2023-03-23T23:13:42.404Z,14.20
2023-03-23T23:14:46.284Z,14.15
2023-03-23T23:15:52.014Z,14.19
2023-03-23T23:16:55.849Z,14.22
2023-03-23T23:17:58.431Z,14.20
2023-03-23T23:19:02.413Z,14.15
2023-03-23T23:20:06.162Z,14.16
2023-03-23T23:21:11.309Z,14.15
2023-03-23T23:22:19.445Z,14.14
2023-03-23T23:23:23.586Z,14.19
2023-03-23T23:24:26.691Z,14.19
2023-03-23T23:25:31.136Z,14.19
2023-03-23T23:26:35.133Z,14.15
2023-03-23T23:27:37.742Z,14.15
2023-03-23T23:28:43.042Z,14.16
2023-03-23T23:29:45.398Z,14.14
2023-03-23T23:30:49.491Z,14.13
2023-03-23T23:31:52.404Z,14.18
2023-03-23T23:32:58.938Z,14.14
2023-03-23T23:34:03.159Z,14.17
2023-03-23T23:35:07.820Z,14.16
2023-03-23T23:36:12.550Z,14.19
2023-03-23T23:37:16.176Z,14.15
2023-03-23T23:38:18.853Z,14.11
2023-03-23T23:39:22.505Z,14.15
2023-03-23T23:40:25.331Z,14.19
2023-03-23T23:41:30.057Z,14.19
2023-03-23T23:42:33.219Z,14.19
2023-03-23T23:43:36.842Z,14.22
2023-03-23T23:44:43.394Z,14.19
2023-03-23T23:45:46.582Z,14.21
2023-03-23T23:46:51.493Z,14.20
2023-03-23T23:47:57.815Z,14.21
2023-03-23T23:49:02.383Z,14.18
2023-03-23T23:50:08.990Z,14.21
2023-03-23T23:51:15.494Z,14.20
2023-03-23T23:52:18.118Z,14.17
2023-03-23T23:53:23.034Z,14.13
2023-03-23T23:54:30.371Z,14.17
2023-03-23T23:55:34.260Z,14.16
2023-03-23T23:56:36.855Z,14.13
2023-03-23T23:57:40.813Z,14.13
2023-03-23T23:58:43.440Z,14.17
2023-03-23T23:59:48.623Z,14.21
